Time;durP1;ratioP1;P1;durP2;ratioP2;P2;SDS_P1;SDS_P2;PMS_P1;PMS_P2;Temp;Humidity;BMP_temperature;BMP_pressure;BME280_temperature;BME280_humidity;BME280_pressure;Samples;Min_cycle;Max_cycle;Signal;HPM_P1;HPM_P2
2022/06/25 00:01:26;;;;;;;24.98;22.45;;;19.50;69.70;;;;;;5049922;28;20037;-70
2022/06/25 00:03:52;;;;;;;24.00;21.65;;;19.40;69.80;;;;;;5048727;28;20047;-70
2022/06/25 00:06:19;;;;;;;17.45;15.88;;;19.30;70.00;;;;;;5050450;28;20484;-70
2022/06/25 00:08:46;;;;;;;12.38;11.18;;;19.30;70.10;;;;;;5051352;28;20045;-70
2022/06/25 00:12:31;;;;;;;11.57;10.48;;;19.30;70.00;;;;;;5050266;28;20099;-70
2022/06/25 00:14:07;;;;;;;12.93;11.73;;;19.30;69.90;;;;;;5050111;28;20049;-70
2022/06/25 00:16:33;;;;;;;10.35;9.35;;;19.20;69.80;;;;;;5050235;28;20124;-70
2022/06/25 00:18:58;;;;;;;9.75;8.90;;;19.20;69.70;;;;;;5048807;28;20463;-72
2022/06/25 00:21:24;;;;;;;23.77;21.45;;;19.20;69.60;;;;;;5050106;28;20057;-71
2022/06/25 00:23:50;;;;;;;22.23;20.15;;;19.10;69.70;;;;;;5032898;28;20116;-70
2022/06/25 00:26:15;;;;;;;13.65;12.45;;;19.20;70.10;;;;;;5050055;28;20519;-64
2022/06/25 00:28:41;;;;;;;14.77;13.55;;;19.10;70.10;;;;;;5049759;28;20128;-64
2022/06/25 00:31:07;;;;;;;24.05;21.95;;;19.10;70.10;;;;;;5050029;28;20057;-64
2022/06/25 00:33:32;;;;;;;22.75;20.80;;;19.10;70.40;;;;;;5049443;28;20057;-64
2022/06/25 00:35:58;;;;;;;21.38;19.45;;;19.10;70.60;;;;;;5049835;28;20049;-70
2022/06/25 00:38:24;;;;;;;16.17;14.77;;;19.10;70.80;;;;;;5049729;28;20025;-70
2022/06/25 00:40:50;;;;;;;21.23;19.30;;;19.00;70.80;;;;;;5066737;28;20424;-69
2022/06/25 00:43:16;;;;;;;17.92;16.23;;;19.00;70.90;;;;;;5049345;28;20039;-70
2022/06/25 00:45:44;;;;;;;25.67;23.23;;;19.00;70.80;;;;;;5050773;28;20403;-70
2022/06/25 00:48:10;;;;;;;26.00;23.65;;;19.00;71.00;;;;;;5050070;28;20044;-70
2022/06/25 00:50:36;;;;;;;24.40;22.30;;;19.00;71.10;;;;;;5053046;28;20461;-70
2022/06/25 00:53:04;;;;;;;23.88;21.80;;;18.90;71.10;;;;;;5054810;28;20114;-70
2022/06/25 00:55:31;;;;;;;26.88;24.35;;;18.90;71.20;;;;;;5053556;28;20174;-70
2022/06/25 00:58:00;;;;;;;25.50;23.05;;;18.90;71.30;;;;;;5053321;28;20045;-69
2022/06/25 01:00:26;;;;;;;28.02;25.20;;;18.80;71.50;;;;;;5041320;28;20041;-69
2022/06/25 01:02:51;;;;;;;26.92;24.63;;;18.70;71.60;;;;;;5054705;28;20029;-69
2022/06/25 01:05:17;;;;;;;24.40;22.20;;;18.70;71.70;;;;;;5036856;28;20037;-69
2022/06/25 01:07:46;;;;;;;26.05;23.73;;;18.60;71.80;;;;;;5054380;28;20045;-70
2022/06/25 01:10:13;;;;;;;27.38;24.98;;;18.50;72.00;;;;;;5054568;28;20037;-70
2022/06/25 01:12:39;;;;;;;28.42;25.80;;;18.50;72.20;;;;;;5053473;28;20182;-70
2022/06/25 01:15:08;;;;;;;28.50;25.90;;;18.40;72.30;;;;;;5036987;28;20499;-70
2022/06/25 01:17:54;;;;;;;26.20;23.98;;;18.40;72.50;;;;;;5036487;28;20501;-70
2022/06/25 01:20:23;;;;;;;24.80;22.67;;;18.30;72.60;;;;;;5069244;28;20045;-69
2022/06/25 01:22:49;;;;;;;20.10;18.33;;;18.20;72.80;;;;;;5054255;28;20079;-70
2022/06/25 01:25:16;;;;;;;25.10;22.70;;;18.20;72.90;;;;;;5054279;28;20053;-69
2022/06/25 01:27:42;;;;;;;23.02;20.88;;;18.20;73.00;;;;;;5052860;28;20052;-69
2022/06/25 01:30:10;;;;;;;21.98;19.98;;;18.10;73.10;;;;;;5035460;28;20045;-70
2022/06/25 01:32:36;;;;;;;25.42;22.80;;;18.10;73.20;;;;;;5052447;28;20110;-69
2022/06/25 01:35:02;;;;;;;22.23;20.30;;;18.10;73.30;;;;;;5054455;28;20416;-69
2022/06/25 01:37:27;;;;;;;22.58;20.50;;;18.00;73.30;;;;;;5052711;28;20084;-69
2022/06/25 01:39:57;;;;;;;23.55;21.52;;;18.00;73.40;;;;;;5051982;28;20041;-70
2022/06/25 01:45:08;;;;;;;20.80;18.90;;;17.90;73.60;;;;;;5053928;28;20120;-69
2022/06/25 01:47:35;;;;;;;21.88;19.88;;;17.90;73.70;;;;;;5053199;28;20411;-69
2022/06/25 01:50:01;;;;;;;19.80;18.05;;;17.80;73.80;;;;;;5052051;28;20045;-69
2022/06/25 01:52:26;;;;;;;19.67;17.88;;;17.80;73.90;;;;;;5052869;28;20120;-69
2022/06/25 01:54:52;;;;;;;20.45;18.30;;;17.80;74.00;;;;;;5052089;28;20045;-69
2022/06/25 01:57:18;;;;;;;17.63;15.90;;;17.80;74.10;;;;;;5053640;28;20037;-69
2022/06/25 01:59:45;;;;;;;19.88;17.98;;;17.80;74.20;;;;;;5053532;28;20385;-70
2022/06/25 02:02:10;;;;;;;16.95;15.45;;;17.80;74.30;;;;;;5051615;28;20040;-68
2022/06/25 02:04:36;;;;;;;19.48;17.55;;;17.70;74.20;;;;;;5052067;28;20037;-69
2022/06/25 02:07:02;;;;;;;18.80;16.42;;;17.70;74.30;;;;;;5035482;28;20045;-69
2022/06/25 02:09:28;;;;;;;19.00;17.30;;;17.80;74.30;;;;;;5053180;28;20053;-69
2022/06/25 02:11:54;;;;;;;19.33;17.38;;;17.80;74.40;;;;;;5052849;28;20111;-69
2022/06/25 02:14:19;;;;;;;18.15;16.42;;;17.70;74.30;;;;;;5053686;28;20044;-69
2022/06/25 02:16:45;;;;;;;18.20;16.50;;;17.70;74.30;;;;;;5052140;28;20549;-69
2022/06/25 02:19:10;;;;;;;18.42;16.75;;;17.70;74.30;;;;;;5051760;28;20033;-69
2022/06/25 02:21:36;;;;;;;18.73;17.00;;;17.70;74.30;;;;;;5052448;28;20029;-68
2022/06/25 02:24:02;;;;;;;18.05;16.35;;;17.60;74.40;;;;;;5051594;28;20412;-70
2022/06/25 02:26:27;;;;;;;18.88;17.17;;;17.60;74.40;;;;;;5053200;28;20120;-69
2022/06/25 02:28:53;;;;;;;17.05;15.45;;;17.60;74.50;;;;;;5052250;28;20048;-69
2022/06/25 02:31:19;;;;;;;18.67;16.95;;;17.60;74.50;;;;;;5048912;28;20451;-69
2022/06/25 02:33:44;;;;;;;16.00;14.65;;;17.50;74.90;;;;;;5051636;28;20389;-69
2022/06/25 02:36:10;;;;;;;16.02;14.52;;;17.50;74.50;;;;;;5052645;28;20084;-69
2022/06/25 02:38:36;;;;;;;12.25;11.15;;;17.50;74.60;;;;;;5052152;28;20522;-69
2022/06/25 02:41:02;;;;;;;11.70;10.50;;;17.50;74.60;;;;;;5050453;28;20045;-70
2022/06/25 02:43:27;;;;;;;15.02;13.63;;;17.50;74.60;;;;;;5052464;28;20071;-68
2022/06/25 02:45:53;;;;;;;11.05;10.05;;;17.50;74.60;;;;;;5051100;28;20064;-69
2022/06/25 02:48:19;;;;;;;13.85;12.65;;;17.50;74.60;;;;;;5050081;28;20399;-68
2022/06/25 02:50:44;;;;;;;16.02;14.63;;;17.50;74.50;;;;;;5051142;28;20141;-68
2022/06/25 02:53:10;;;;;;;15.50;14.10;;;17.50;74.50;;;;;;5052022;28;20037;-69
2022/06/25 03:01:04;;;;;;;10.48;9.45;;;17.50;74.60;;;;;;5049558;28;20119;-69
2022/06/25 03:03:30;;;;;;;13.55;12.13;;;17.50;74.60;;;;;;5051088;28;20119;-69
2022/06/25 03:05:56;;;;;;;15.13;13.65;;;17.50;74.60;;;;;;5051333;28;20066;-69
2022/06/25 03:08:22;;;;;;;14.10;12.80;;;17.50;74.60;;;;;;5051118;28;20048;-69
2022/06/25 03:10:48;;;;;;;14.23;12.88;;;17.40;74.70;;;;;;5050386;28;20110;-69
2022/06/25 03:13:13;;;;;;;14.20;12.98;;;17.40;74.70;;;;;;5050910;28;20049;-69
2022/06/25 03:15:39;;;;;;;12.80;11.70;;;17.40;74.60;;;;;;5051920;28;20049;-69
2022/06/25 03:18:05;;;;;;;12.02;10.82;;;17.40;74.60;;;;;;5051153;28;20041;-68
2022/06/25 03:20:31;;;;;;;12.75;11.65;;;17.40;74.60;;;;;;5050306;28;20396;-69
2022/06/25 03:22:57;;;;;;;13.10;12.00;;;17.40;74.70;;;;;;5051753;28;20063;-67
2022/06/25 03:25:23;;;;;;;10.80;9.77;;;17.40;74.70;;;;;;5051076;28;20187;-68
2022/06/25 03:27:49;;;;;;;13.50;11.80;;;17.40;74.70;;;;;;5051917;28;20485;-68
2022/06/25 03:30:14;;;;;;;9.70;8.70;;;17.40;74.70;;;;;;5039154;28;20136;-69
2022/06/25 03:32:40;;;;;;;10.02;9.13;;;17.40;74.70;;;;;;5051875;28;20048;-68
2022/06/25 03:35:06;;;;;;;12.65;11.45;;;17.40;74.70;;;;;;5050651;28;20118;-68
2022/06/25 03:37:32;;;;;;;10.57;9.57;;;17.40;74.80;;;;;;5033804;28;20041;-69
2022/06/25 03:39:58;;;;;;;12.00;10.90;;;17.40;74.80;;;;;;5049830;28;20040;-68
2022/06/25 03:42:24;;;;;;;11.43;10.43;;;17.40;74.80;;;;;;5050258;28;20557;-68
2022/06/25 03:44:49;;;;;;;11.63;10.60;;;17.40;74.80;;;;;;5051973;28;20037;-68
2022/06/25 03:47:15;;;;;;;11.02;9.93;;;17.50;74.90;;;;;;5033922;28;20429;-68
2022/06/25 03:49:41;;;;;;;9.20;8.30;;;17.50;75.00;;;;;;5049381;28;20111;-67
2022/06/25 03:52:07;;;;;;;10.18;9.00;;;17.40;74.90;;;;;;5050332;28;20044;-68
2022/06/25 03:54:32;;;;;;;10.43;9.45;;;17.50;74.90;;;;;;5049974;28;20080;-67
2022/06/25 03:56:58;;;;;;;10.73;9.63;;;17.50;74.90;;;;;;5050010;28;20048;-69
2022/06/25 03:59:24;;;;;;;9.55;8.57;;;17.50;74.90;;;;;;5047605;28;20086;-67
2022/06/25 04:01:49;;;;;;;8.35;7.60;;;17.50;74.90;;;;;;5049611;28;20076;-67
2022/06/25 04:04:15;;;;;;;11.18;10.18;;;17.50;75.40;;;;;;5049980;28;20527;-68
2022/06/25 04:06:41;;;;;;;7.35;6.60;;;17.60;75.00;;;;;;5033758;28;20488;-69
2022/06/25 04:09:07;;;;;;;10.80;9.80;;;17.60;74.90;;;;;;5033138;28;20037;-68
2022/06/25 04:11:33;;;;;;;10.18;9.27;;;17.60;74.90;;;;;;5049965;28;20132;-69
2022/06/25 04:13:58;;;;;;;11.15;10.05;;;17.60;74.90;;;;;;5049811;28;20048;-68
2022/06/25 04:16:25;;;;;;;10.07;9.20;;;17.60;74.90;;;;;;5049935;28;20075;-64
2022/06/25 04:18:50;;;;;;;9.40;8.50;;;17.60;75.00;;;;;;5051242;28;20419;-63
2022/06/25 04:21:16;;;;;;;9.23;8.05;;;17.60;74.90;;;;;;5050286;28;20148;-63
2022/06/25 04:23:42;;;;;;;8.88;8.05;;;17.60;75.00;;;;;;5050419;28;20120;-63
2022/06/25 04:26:08;;;;;;;9.70;8.82;;;17.60;74.90;;;;;;5065504;28;20068;-63
2022/06/25 04:31:17;;;;;;;8.82;8.02;;;17.70;75.10;;;;;;5059007;28;20053;-63
2022/06/25 04:33:43;;;;;;;11.10;10.02;;;17.70;75.10;;;;;;5037396;28;20381;-63
2022/06/25 04:36:09;;;;;;;9.40;8.50;;;17.70;75.20;;;;;;5053313;28;20084;-64
2022/06/25 04:38:34;;;;;;;9.60;8.70;;;17.70;75.60;;;;;;5037361;28;20041;-63
2022/06/25 04:41:00;;;;;;;9.93;8.93;;;17.70;75.30;;;;;;5055128;28;20037;-64
2022/06/25 04:43:26;;;;;;;9.65;8.85;;;17.70;75.40;;;;;;5054638;28;20040;-63
2022/06/25 04:45:51;;;;;;;8.85;8.05;;;17.70;75.50;;;;;;5053758;28;20048;-63
2022/06/25 04:48:17;;;;;;;10.02;8.18;;;17.70;75.50;;;;;;5052959;28;20045;-63
2022/06/25 04:50:44;;;;;;;10.90;8.80;;;17.70;75.50;;;;;;5054591;28;20395;-63
2022/06/25 04:53:10;;;;;;;9.90;8.88;;;17.80;75.70;;;;;;5053700;28;20033;-63
2022/06/25 04:55:35;;;;;;;9.40;8.38;;;17.80;75.70;;;;;;5055008;28;20385;-63
2022/06/25 04:58:02;;;;;;;9.23;8.32;;;17.80;75.70;;;;;;5053292;28;20116;-63
2022/06/25 05:00:28;;;;;;;8.73;7.65;;;17.80;75.70;;;;;;5054488;28;20037;-63
2022/06/25 05:02:54;;;;;;;8.82;8.05;;;17.80;75.80;;;;;;5054462;28;20044;-67
2022/06/25 05:05:19;;;;;;;8.65;7.85;;;17.90;75.90;;;;;;5052996;28;20495;-68
2022/06/25 05:07:45;;;;;;;9.38;8.50;;;17.90;76.00;;;;;;5052827;28;20099;-67
2022/06/25 05:10:11;;;;;;;8.93;7.47;;;17.90;76.20;;;;;;5054603;28;20480;-68
2022/06/25 05:15:21;;;;;;;8.57;6.90;;;18.10;76.50;;;;;;5054146;28;20075;-68
2022/06/25 05:17:47;;;;;;;8.27;7.38;;;18.10;76.70;;;;;;5052980;28;20045;-63
2022/06/25 05:20:13;;;;;;;6.63;6.00;;;18.30;76.90;;;;;;5051984;28;20098;-66
2022/06/25 05:22:39;;;;;;;6.38;5.78;;;18.50;76.90;;;;;;5052767;28;20438;-68
2022/06/25 05:25:05;;;;;;;7.60;6.45;;;18.70;76.70;;;;;;5035757;28;20039;-68
2022/06/25 05:27:31;;;;;;;9.50;5.63;;;19.00;76.40;;;;;;5054381;28;20083;-68
2022/06/25 05:29:57;;;;;;;6.22;4.70;;;19.30;75.80;;;;;;5053511;28;20045;-67
2022/06/25 05:32:22;;;;;;;6.97;5.15;;;19.70;75.30;;;;;;5052891;28;20045;-69
2022/06/25 05:34:48;;;;;;;9.30;5.35;;;20.10;73.80;;;;;;5052312;28;20075;-62
2022/06/25 05:37:15;;;;;;;6.25;5.05;;;20.50;72.90;;;;;;5053783;28;20041;-63
2022/06/25 05:39:41;;;;;;;6.28;4.88;;;20.90;71.20;;;;;;5053030;28;20060;-63
2022/06/25 05:42:07;;;;;;;9.35;4.35;;;21.20;70.60;;;;;;5053621;28;20038;-63
2022/06/25 05:44:32;;;;;;;7.38;4.60;;;21.50;69.90;;;;;;5053388;28;20036;-63
2022/06/25 05:46:58;;;;;;;6.38;3.90;;;21.90;69.10;;;;;;5052554;28;20114;-63
2022/06/25 05:49:24;;;;;;;5.72;3.30;;;22.30;68.30;;;;;;5052277;28;20057;-63
2022/06/25 05:51:50;;;;;;;5.45;3.40;;;22.70;67.00;;;;;;5053605;28;20033;-62
2022/06/25 05:54:16;;;;;;;4.30;2.83;;;23.10;66.50;;;;;;5053890;28;20514;-62
2022/06/25 05:56:42;;;;;;;3.83;3.47;;;23.50;64.40;;;;;;5051556;28;20041;-63
2022/06/25 05:59:07;;;;;;;6.63;3.55;;;23.90;63.00;;;;;;5053394;28;20051;-63
2022/06/25 06:01:33;;;;;;;4.53;3.08;;;24.30;61.90;;;;;;5065712;28;20044;-65
2022/06/25 06:03:59;;;;;;;4.22;2.55;;;24.60;60.40;;;;;;5052259;28;20036;-67
2022/06/25 06:06:25;;;;;;;4.53;2.67;;;24.80;59.50;;;;;;5053147;28;20461;-66
2022/06/25 06:08:50;;;;;;;4.20;2.78;;;25.10;59.00;;;;;;5053549;28;20120;-62
2022/06/25 06:11:16;;;;;;;4.78;2.53;;;25.30;58.40;;;;;;5051205;28;20037;-63
2022/06/25 06:13:42;;;;;;;4.93;3.03;;;25.60;57.70;;;;;;5053592;28;20037;-68
2022/06/25 06:16:07;;;;;;;5.55;3.03;;;25.90;56.90;;;;;;5051206;28;20037;-68
2022/06/25 06:18:33;;;;;;;5.20;2.35;;;26.20;56.20;;;;;;5054001;28;20095;-69
2022/06/25 06:20:59;;;;;;;2.83;2.28;;;26.40;55.60;;;;;;5052897;28;20392;-69
2022/06/25 06:23:24;;;;;;;4.85;2.70;;;26.60;55.00;;;;;;5052524;28;20079;-68
2022/06/25 06:25:50;;;;;;;5.35;2.30;;;26.80;54.70;;;;;;5054124;28;20098;-69
2022/06/25 06:28:16;;;;;;;3.50;2.33;;;27.00;54.50;;;;;;5051651;28;20040;-68
2022/06/25 06:30:42;;;;;;;5.57;2.72;;;27.30;54.10;;;;;;5053913;28;20041;-68
2022/06/25 06:33:08;;;;;;;4.10;2.30;;;27.40;53.40;;;;;;5035546;28;20133;-69
2022/06/25 06:35:35;;;;;;;4.43;2.45;;;27.50;52.90;;;;;;5054044;28;20029;-69
2022/06/25 06:38:01;;;;;;;4.78;2.30;;;27.70;52.20;;;;;;5053382;28;20044;-69
2022/06/25 06:40:26;;;;;;;6.05;2.20;;;27.80;52.00;;;;;;5053619;28;20025;-69
2022/06/25 06:42:52;;;;;;;4.15;2.58;;;27.90;51.70;;;;;;5051777;28;20124;-69
2022/06/25 06:45:17;;;;;;;4.80;2.40;;;28.10;50.90;;;;;;5052511;28;20041;-69
2022/06/25 06:47:43;;;;;;;4.43;2.45;;;28.20;50.40;;;;;;5052307;28;20056;-70
2022/06/25 06:50:10;;;;;;;6.63;2.50;;;28.30;50.10;;;;;;5050520;28;20099;-69
2022/06/25 06:52:36;;;;;;;3.00;1.88;;;28.30;49.80;;;;;;5051529;28;20116;-69
2022/06/25 06:55:04;;;;;;;3.42;1.85;;;28.40;49.90;;;;;;5052223;28;20041;-69
2022/06/25 06:57:31;;;;;;;3.85;1.80;;;28.40;49.20;;;;;;5052357;28;20037;-68
2022/06/25 07:00:00;;;;;;;4.43;1.90;;;28.60;49.00;;;;;;5053177;28;20033;-69
2022/06/25 07:02:26;;;;;;;4.50;2.13;;;28.60;48.40;;;;;;5053136;28;20048;-69
2022/06/25 07:04:52;;;;;;;4.88;2.70;;;28.70;48.30;;;;;;5053457;28;20052;-70
2022/06/25 07:07:18;;;;;;;3.08;1.95;;;28.70;48.30;;;;;;5052748;28;20400;-70
2022/06/25 07:09:44;;;;;;;4.60;1.83;;;28.80;48.10;;;;;;5051716;28;20041;-69
2022/06/25 07:12:10;;;;;;;2.95;1.80;;;28.90;48.50;;;;;;5052839;28;20043;-70
2022/06/25 07:14:35;;;;;;;5.25;1.92;;;28.90;48.40;;;;;;5035449;28;20133;-69
2022/06/25 07:17:01;;;;;;;5.32;2.05;;;29.00;48.10;;;;;;5051403;28;20388;-67
2022/06/25 07:19:27;;;;;;;4.03;2.25;;;29.10;47.60;;;;;;5051777;28;20424;-71
2022/06/25 07:21:54;;;;;;;3.42;1.80;;;28.90;47.10;;;;;;5054696;28;20129;-68
2022/06/25 07:24:21;;;;;;;3.55;2.00;;;28.90;47.50;;;;;;5063829;28;20032;-69
2022/06/25 07:26:47;;;;;;;2.88;1.90;;;28.90;47.70;;;;;;5066191;28;20056;-69
2022/06/25 07:29:13;;;;;;;3.70;1.83;;;29.00;47.40;;;;;;5068022;28;20045;-69
2022/06/25 07:31:38;;;;;;;4.22;1.95;;;29.00;47.10;;;;;;5062876;28;20454;-69
2022/06/25 07:34:05;;;;;;;3.78;1.70;;;29.00;46.80;;;;;;5063823;28;20056;-68
2022/06/25 07:36:31;;;;;;;5.28;2.30;;;29.00;46.50;;;;;;5063803;28;20044;-69
2022/06/25 07:38:57;;;;;;;3.60;1.80;;;29.00;47.20;;;;;;5065704;28;20032;-69
2022/06/25 07:41:23;;;;;;;4.80;1.88;;;29.10;46.60;;;;;;5064050;28;20028;-69
2022/06/25 07:43:48;;;;;;;3.60;2.17;;;29.20;46.50;;;;;;5063843;28;20112;-69
2022/06/25 07:46:14;;;;;;;4.35;1.70;;;29.30;47.20;;;;;;5065934;28;20040;-70
2022/06/25 07:48:40;;;;;;;4.55;2.00;;;29.40;46.50;;;;;;5064439;28;20043;-70
2022/06/25 07:53:50;;;;;;;2.72;1.80;;;29.50;45.10;;;;;;5065699;28;20094;-70
2022/06/25 07:56:16;;;;;;;3.80;1.83;;;29.40;45.30;;;;;;5064149;28;20040;-65
2022/06/25 07:58:42;;;;;;;4.28;1.95;;;29.40;45.70;;;;;;5064094;28;20464;-64
2022/06/25 08:01:08;;;;;;;4.32;1.83;;;29.30;45.70;;;;;;5065072;28;20037;-64
2022/06/25 08:03:34;;;;;;;4.95;1.92;;;29.50;45.90;;;;;;5048356;28;20067;-65
2022/06/25 08:05:59;;;;;;;4.18;2.25;;;29.50;45.90;;;;;;5030393;28;20052;-70
2022/06/25 08:08:25;;;;;;;8.63;2.30;;;29.50;45.70;;;;;;5047359;28;20056;-69
2022/06/25 08:10:51;;;;;;;4.63;1.98;;;29.50;45.60;;;;;;5063354;28;20089;-70
2022/06/25 08:13:17;;;;;;;4.85;1.90;;;29.50;45.40;;;;;;5066039;28;20442;-70
2022/06/25 08:15:43;;;;;;;5.45;1.60;;;29.50;45.60;;;;;;5064062;28;20044;-70
2022/06/25 08:18:09;;;;;;;4.45;1.90;;;29.40;45.40;;;;;;5065331;28;20051;-70
2022/06/25 08:20:34;;;;;;;3.10;1.80;;;29.40;45.20;;;;;;5059933;28;20143;-69
2022/06/25 08:23:00;;;;;;;5.88;2.30;;;29.30;45.20;;;;;;5049761;28;20055;-72
2022/06/25 08:25:26;;;;;;;5.28;2.10;;;29.30;45.00;;;;;;5050363;28;20378;-71
2022/06/25 08:27:53;;;;;;;4.28;1.65;;;29.30;45.10;;;;;;5065421;28;20048;-72
2022/06/25 08:30:23;;;;;;;4.35;2.33;;;29.30;44.80;;;;;;5050465;28;20393;-72
2022/06/25 08:32:50;;;;;;;3.20;1.70;;;29.30;44.50;;;;;;5050698;28;20524;-72
2022/06/25 08:35:17;;;;;;;5.25;2.35;;;29.20;44.80;;;;;;5050146;28;20076;-72
2022/06/25 08:37:48;;;;;;;4.43;1.75;;;29.10;44.80;;;;;;5050796;28;20120;-72
2022/06/25 08:40:16;;;;;;;5.53;2.28;;;29.00;45.40;;;;;;5050727;28;20051;-71
2022/06/25 08:42:42;;;;;;;2.33;1.70;;;29.00;45.30;;;;;;5033887;28;20040;-70
2022/06/25 08:45:08;;;;;;;4.30;1.90;;;29.00;45.10;;;;;;5050589;28;20037;-72
2022/06/25 08:47:34;;;;;;;5.13;1.77;;;29.00;45.20;;;;;;5049509;28;20048;-70
2022/06/25 08:50:02;;;;;;;4.53;1.85;;;29.00;45.80;;;;;;5033170;28;20123;-71
2022/06/25 08:52:28;;;;;;;5.00;1.77;;;29.00;45.70;;;;;;5049923;28;20036;-71
2022/06/25 08:54:55;;;;;;;2.90;1.67;;;29.10;45.40;;;;;;5050925;28;20099;-70
2022/06/25 08:57:21;;;;;;;3.25;1.85;;;29.10;45.40;;;;;;5050185;28;20499;-70
2022/06/25 08:59:47;;;;;;;3.20;1.35;;;29.20;45.50;;;;;;5050669;28;20041;-71
2022/06/25 09:02:12;;;;;;;2.75;1.42;;;29.20;45.40;;;;;;5032544;28;20041;-70
2022/06/25 09:04:38;;;;;;;4.60;2.30;;;29.30;45.10;;;;;;5050629;28;20044;-69
2022/06/25 09:07:17;;;;;;;4.47;1.70;;;29.30;44.90;;;;;;5050565;28;20499;-70
2022/06/25 09:09:50;;;;;;;2.90;1.30;;;29.40;45.50;;;;;;5034039;28;20051;-65
2022/06/25 09:12:17;;;;;;;4.40;1.40;;;29.50;45.30;;;;;;5035793;28;20488;-63
2022/06/25 09:14:43;;;;;;;7.75;1.30;;;29.60;45.20;;;;;;5055696;28;20103;-62
2022/06/25 09:17:14;;;;;;;4.05;1.48;;;29.60;44.70;;;;;;5049672;28;20029;-63
2022/06/25 09:19:47;;;;;;;2.67;1.02;;;29.50;44.30;;;;;;5053387;28;20036;-62
2022/06/25 09:22:23;;;;;;;2.63;1.30;;;29.50;44.20;;;;;;5054258;28;20403;-63
2022/06/25 09:24:52;;;;;;;2.20;1.00;;;29.50;44.00;;;;;;5053035;28;20099;-63
2022/06/25 09:27:37;;;;;;;2.30;0.95;;;29.50;44.60;;;;;;5053069;28;20158;-63
2022/06/25 09:30:14;;;;;;;3.13;1.10;;;29.50;45.20;;;;;;5044338;28;20047;-63
2022/06/25 09:32:48;;;;;;;2.00;0.90;;;29.50;44.80;;;;;;5052868;28;20057;-64
2022/06/25 09:35:32;;;;;;;2.83;1.30;;;29.60;44.90;;;;;;5054050;28;20105;-66
2022/06/25 09:38:14;;;;;;;2.42;0.90;;;29.60;44.60;;;;;;5052049;28;20084;-65
2022/06/25 09:40:50;;;;;;;3.55;1.20;;;29.70;45.50;;;;;;5047937;28;20033;-66
2022/06/25 09:43:19;;;;;;;2.08;1.15;;;29.70;43.50;;;;;;5053469;28;20041;-65
2022/06/25 09:45:53;;;;;;;3.13;0.88;;;29.70;43.70;;;;;;5060552;28;20052;-66
2022/06/25 09:48:27;;;;;;;2.35;1.17;;;29.70;44.20;;;;;;5054208;28;20075;-63
2022/06/25 09:51:11;;;;;;;2.92;1.30;;;29.70;44.50;;;;;;5053536;28;20045;-63
2022/06/25 09:53:51;;;;;;;3.60;0.90;;;29.60;44.40;;;;;;5047166;28;20036;-62
2022/06/25 09:56:20;;;;;;;2.15;1.05;;;29.60;45.10;;;;;;5054549;28;20570;-62
2022/06/25 09:58:47;;;;;;;3.30;0.70;;;29.60;45.10;;;;;;5053000;28;20455;-61
2022/06/25 10:01:16;;;;;;;3.60;1.20;;;29.50;44.40;;;;;;5053973;28;20033;-62
2022/06/25 10:03:43;;;;;;;0.73;0.60;;;29.50;44.50;;;;;;5054411;28;20047;-62
2022/06/25 10:06:09;;;;;;;2.47;0.93;;;29.40;44.50;;;;;;5054552;28;20052;-62
2022/06/25 10:08:36;;;;;;;2.53;0.93;;;29.30;44.30;;;;;;5054161;28;20484;-63
2022/06/25 10:11:05;;;;;;;2.17;0.90;;;29.30;44.20;;;;;;5053760;28;20037;-62
2022/06/25 10:13:31;;;;;;;2.90;0.75;;;29.10;44.30;;;;;;5053224;28;20036;-62
2022/06/25 10:15:57;;;;;;;1.35;0.75;;;29.00;44.40;;;;;;5052583;28;20040;-62
2022/06/25 10:18:25;;;;;;;2.25;0.90;;;28.90;44.70;;;;;;5052540;28;20051;-62
2022/06/25 10:20:51;;;;;;;2.65;0.80;;;28.80;44.20;;;;;;5053763;28;20047;-62
2022/06/25 10:23:20;;;;;;;3.03;1.00;;;28.70;44.40;;;;;;5051449;28;20037;-63
2022/06/25 10:25:46;;;;;;;3.05;1.00;;;28.60;44.50;;;;;;5052139;28;20531;-63
2022/06/25 10:28:15;;;;;;;2.08;1.10;;;28.50;44.90;;;;;;5053710;28;20416;-63
2022/06/25 10:30:52;;;;;;;2.22;0.93;;;28.40;44.90;;;;;;5052884;28;20036;-63
2022/06/25 10:33:21;;;;;;;1.45;0.93;;;28.20;45.10;;;;;;5052009;28;20052;-62
2022/06/25 10:35:52;;;;;;;3.13;1.20;;;28.20;45.60;;;;;;5054019;28;20103;-63
2022/06/25 10:38:23;;;;;;;3.22;1.23;;;28.10;45.70;;;;;;5052769;28;20040;-63
2022/06/25 10:40:58;;;;;;;2.90;1.30;;;28.00;45.90;;;;;;5053113;28;20508;-62
2022/06/25 10:43:41;;;;;;;2.28;1.15;;;27.90;45.10;;;;;;5052080;28;20040;-62
2022/06/25 10:46:26;;;;;;;1.15;0.70;;;27.80;45.50;;;;;;5053655;28;20451;-63
2022/06/25 10:49:15;;;;;;;2.50;1.08;;;27.70;46.50;;;;;;5053810;28;20051;-63
2022/06/25 10:51:45;;;;;;;1.77;0.98;;;27.70;47.00;;;;;;5052610;28;20049;-62
2022/06/25 10:54:24;;;;;;;3.15;1.17;;;27.70;47.30;;;;;;5053511;28;20130;-63
2022/06/25 10:56:55;;;;;;;2.38;1.30;;;27.80;47.70;;;;;;5053169;28;20052;-62
2022/06/25 10:59:41;;;;;;;2.47;1.13;;;27.80;47.10;;;;;;5053039;28;20068;-69
2022/06/25 11:02:09;;;;;;;4.38;0.90;;;27.80;46.90;;;;;;5048566;28;20518;-67
2022/06/25 11:04:36;;;;;;;1.55;1.00;;;27.70;46.90;;;;;;5051620;28;20557;-68
2022/06/25 11:07:19;;;;;;;3.55;1.17;;;27.60;46.80;;;;;;5052259;28;20510;-68
2022/06/25 11:09:59;;;;;;;3.60;1.05;;;27.60;46.90;;;;;;5045058;28;20048;-69
2022/06/25 11:12:28;;;;;;;2.53;1.27;;;27.50;47.40;;;;;;5051181;28;20052;-68
2022/06/25 11:15:01;;;;;;;1.77;1.15;;;27.40;47.80;;;;;;5052065;28;20142;-68
2022/06/25 11:17:28;;;;;;;3.45;1.70;;;27.30;48.70;;;;;;5051152;28;20037;-69
2022/06/25 11:20:00;;;;;;;2.10;1.42;;;27.20;49.50;;;;;;5052388;28;20063;-67
2022/06/25 11:22:26;;;;;;;2.75;1.45;;;27.10;50.50;;;;;;5051054;28;20045;-68
2022/06/25 11:30:20;;;;;;;2.83;1.88;;;26.80;51.40;;;;;;5051466;28;20051;-68
2022/06/25 11:32:46;;;;;;;2.50;1.45;;;26.70;52.20;;;;;;5051272;28;20202;-68
2022/06/25 11:35:13;;;;;;;2.75;1.20;;;26.60;52.30;;;;;;5051343;28;20520;-68
2022/06/25 11:37:38;;;;;;;4.82;1.70;;;26.60;52.30;;;;;;5051411;28;20084;-69
2022/06/25 11:40:15;;;;;;;4.53;1.77;;;26.50;53.10;;;;;;5067722;28;20133;-69
2022/06/25 11:42:41;;;;;;;1.95;1.50;;;26.40;52.70;;;;;;5046116;28;20049;-69
2022/06/25 11:45:08;;;;;;;2.72;1.85;;;26.40;53.10;;;;;;5050965;28;20043;-68
2022/06/25 11:47:35;;;;;;;3.97;2.15;;;26.30;52.90;;;;;;5015296;28;20136;-69
2022/06/25 11:50:07;;;;;;;3.22;2.10;;;26.20;53.00;;;;;;5040118;28;20047;-69
2022/06/25 11:52:33;;;;;;;2.50;1.40;;;26.10;52.90;;;;;;5052651;28;20385;-73
2022/06/25 11:54:58;;;;;;;2.70;1.48;;;25.90;53.20;;;;;;5067148;28;20044;-70
2022/06/25 11:57:27;;;;;;;4.35;1.98;;;25.80;53.50;;;;;;5050226;28;20155;-72
2022/06/25 11:59:54;;;;;;;4.53;1.88;;;25.70;53.90;;;;;;5054665;28;20045;-72
2022/06/25 12:02:20;;;;;;;10.95;5.75;;;25.60;54.00;;;;;;5051350;28;20449;-71
2022/06/25 12:04:52;;;;;;;8.85;4.82;;;25.60;54.40;;;;;;5045174;28;20049;-71
2022/06/25 12:07:23;;;;;;;16.05;8.75;;;25.50;54.60;;;;;;5044312;28;20036;-75
2022/06/25 12:09:51;;;;;;;7.13;3.85;;;25.50;55.20;;;;;;5050723;28;20044;-74
2022/06/25 12:12:18;;;;;;;5.50;3.05;;;25.40;55.30;;;;;;5050779;28;20047;-71
2022/06/25 12:14:45;;;;;;;17.48;9.50;;;25.30;55.60;;;;;;5050665;28;20095;-70
2022/06/25 12:17:11;;;;;;;46.60;23.30;;;25.30;55.90;;;;;;5050954;28;20106;-71
2022/06/25 12:19:45;;;;;;;7.43;4.07;;;25.20;56.10;;;;;;5050718;28;20488;-70
2022/06/25 12:22:25;;;;;;;5.10;3.05;;;25.20;56.20;;;;;;5052134;28;20025;-71
2022/06/25 12:24:53;;;;;;;4.57;2.97;;;25.10;56.10;;;;;;5050775;28;20049;-73
2022/06/25 12:27:19;;;;;;;5.75;2.22;;;25.10;56.20;;;;;;5043352;28;20098;-72
2022/06/25 12:29:51;;;;;;;9.70;4.63;;;25.00;56.20;;;;;;5050942;28;20045;-72
2022/06/25 12:32:17;;;;;;;4.28;2.63;;;25.00;56.80;;;;;;5048218;28;20053;-74
2022/06/25 12:34:51;;;;;;;4.53;2.97;;;24.90;56.30;;;;;;5051413;28;20106;-72
2022/06/25 12:37:31;;;;;;;3.50;3.03;;;24.90;56.30;;;;;;5034271;28;20045;-71
2022/06/25 12:39:59;;;;;;;4.03;2.70;;;24.80;56.00;;;;;;5051222;28;20045;-71
2022/06/25 12:42:29;;;;;;;4.25;2.50;;;24.80;56.20;;;;;;5050150;28;20174;-71
2022/06/25 12:44:56;;;;;;;4.10;2.30;;;24.70;56.60;;;;;;5034458;28;20071;-71
2022/06/25 12:47:22;;;;;;;5.05;2.78;;;24.60;56.80;;;;;;5021258;28;20045;-72
2022/06/25 12:49:53;;;;;;;9.50;2.75;;;24.50;56.50;;;;;;5055151;28;20048;-72
2022/06/25 12:52:25;;;;;;;4.80;2.83;;;24.50;56.50;;;;;;5053846;28;20036;-71
2022/06/25 12:54:55;;;;;;;3.53;2.60;;;24.40;57.10;;;;;;5052725;28;20079;-71
2022/06/25 12:57:26;;;;;;;2.92;2.50;;;24.40;57.10;;;;;;5052259;28;20040;-71
2022/06/25 12:59:52;;;;;;;5.05;3.00;;;24.40;57.20;;;;;;5054203;28;20151;-72
2022/06/25 13:02:19;;;;;;;4.68;2.72;;;24.40;57.10;;;;;;5054120;28;20110;-72
2022/06/25 13:04:45;;;;;;;3.75;2.30;;;24.30;57.20;;;;;;5054207;28;20041;-72